sensor_id;sensor_type;location;lat;lon;timestamp;P1;durP1;ratioP1;P2;durP2;ratioP2
56637;SDS011;42507;51.982;20.140;2022-11-15T00:00:09;56.58;;;27.07;;
56637;SDS011;42507;51.982;20.140;2022-11-15T00:02:56;53.73;;;25.45;;
56637;SDS011;42507;51.982;20.140;2022-11-15T00:05:41;53.33;;;24.87;;
56637;SDS011;42507;51.982;20.140;2022-11-15T00:08:28;54.60;;;26.02;;
56637;SDS011;42507;51.982;20.140;2022-11-15T00:11:14;60.15;;;26.45;;
56637;SDS011;42507;51.982;20.140;2022-11-15T00:13:59;66.42;;;28.35;;
56637;SDS011;42507;51.982;20.140;2022-11-15T00:16:46;57.80;;;26.45;;
56637;SDS011;42507;51.982;20.140;2022-11-15T00:19:30;60.55;;;27.58;;
56637;SDS011;42507;51.982;20.140;2022-11-15T00:22:15;62.98;;;28.40;;
56637;SDS011;42507;51.982;20.140;2022-11-15T00:25:00;61.48;;;27.25;;
56637;SDS011;42507;51.982;20.140;2022-11-15T00:27:44;65.45;;;28.98;;
56637;SDS011;42507;51.982;20.140;2022-11-15T00:30:29;55.63;;;25.75;;
56637;SDS011;42507;51.982;20.140;2022-11-15T00:33:14;63.68;;;27.75;;
56637;SDS011;42507;51.982;20.140;2022-11-15T00:36:00;56.08;;;25.85;;
56637;SDS011;42507;51.982;20.140;2022-11-15T00:38:49;60.50;;;26.55;;
56637;SDS011;42507;51.982;20.140;2022-11-15T00:41:34;68.55;;;30.85;;
56637;SDS011;42507;51.982;20.140;2022-11-15T00:44:19;69.35;;;30.00;;
56637;SDS011;42507;51.982;20.140;2022-11-15T00:47:04;68.37;;;28.65;;
56637;SDS011;42507;51.982;20.140;2022-11-15T00:49:49;66.65;;;28.07;;
56637;SDS011;42507;51.982;20.140;2022-11-15T00:52:33;66.80;;;29.10;;
56637;SDS011;42507;51.982;20.140;2022-11-15T00:55:18;59.88;;;26.42;;
56637;SDS011;42507;51.982;20.140;2022-11-15T00:58:03;62.23;;;28.85;;
56637;SDS011;42507;51.982;20.140;2022-11-15T01:00:48;73.30;;;30.08;;
56637;SDS011;42507;51.982;20.140;2022-11-15T01:03:33;69.82;;;30.60;;
56637;SDS011;42507;51.982;20.140;2022-11-15T01:06:19;61.60;;;26.77;;
56637;SDS011;42507;51.982;20.140;2022-11-15T01:09:03;71.55;;;29.98;;
56637;SDS011;42507;51.982;20.140;2022-11-15T01:11:48;73.35;;;31.20;;
56637;SDS011;42507;51.982;20.140;2022-11-15T01:14:33;72.55;;;29.35;;
56637;SDS011;42507;51.982;20.140;2022-11-15T01:17:18;69.72;;;28.62;;
56637;SDS011;42507;51.982;20.140;2022-11-15T01:20:03;67.15;;;29.07;;
56637;SDS011;42507;51.982;20.140;2022-11-15T01:22:48;65.67;;;28.45;;
56637;SDS011;42507;51.982;20.140;2022-11-15T01:25:33;69.47;;;28.90;;
56637;SDS011;42507;51.982;20.140;2022-11-15T01:28:17;69.82;;;30.05;;
56637;SDS011;42507;51.982;20.140;2022-11-15T01:31:03;69.97;;;29.87;;
56637;SDS011;42507;51.982;20.140;2022-11-15T01:33:51;60.43;;;28.67;;
56637;SDS011;42507;51.982;20.140;2022-11-15T01:36:35;67.03;;;29.92;;
56637;SDS011;42507;51.982;20.140;2022-11-15T01:39:20;67.70;;;28.15;;
56637;SDS011;42507;51.982;20.140;2022-11-15T01:42:05;68.78;;;29.20;;
56637;SDS011;42507;51.982;20.140;2022-11-15T01:44:50;58.45;;;27.32;;
56637;SDS011;42507;51.982;20.140;2022-11-15T01:47:37;57.38;;;26.02;;
56637;SDS011;42507;51.982;20.140;2022-11-15T01:50:30;62.35;;;28.67;;
56637;SDS011;42507;51.982;20.140;2022-11-15T01:53:13;62.20;;;28.05;;
56637;SDS011;42507;51.982;20.140;2022-11-15T01:56:01;68.97;;;29.35;;
56637;SDS011;42507;51.982;20.140;2022-11-15T01:58:48;69.20;;;30.27;;
56637;SDS011;42507;51.982;20.140;2022-11-15T02:01:35;69.55;;;30.27;;
56637;SDS011;42507;51.982;20.140;2022-11-15T02:04:24;73.72;;;31.37;;
56637;SDS011;42507;51.982;20.140;2022-11-15T02:07:12;72.25;;;30.43;;
56637;SDS011;42507;51.982;20.140;2022-11-15T02:10:02;68.15;;;29.60;;
56637;SDS011;42507;51.982;20.140;2022-11-15T02:12:53;71.07;;;30.85;;
56637;SDS011;42507;51.982;20.140;2022-11-15T02:15:40;77.82;;;31.60;;
56637;SDS011;42507;51.982;20.140;2022-11-15T02:18:37;77.75;;;33.08;;
56637;SDS011;42507;51.982;20.140;2022-11-15T02:21:28;72.30;;;31.80;;
56637;SDS011;42507;51.982;20.140;2022-11-15T02:24:43;76.72;;;30.82;;
56637;SDS011;42507;51.982;20.140;2022-11-15T02:34:15;75.12;;;30.85;;
56637;SDS011;42507;51.982;20.140;2022-11-15T02:37:16;66.10;;;29.30;;
56637;SDS011;42507;51.982;20.140;2022-11-15T02:43:46;63.15;;;27.40;;
56637;SDS011;42507;51.982;20.140;2022-11-15T02:46:43;72.00;;;30.00;;
56637;SDS011;42507;51.982;20.140;2022-11-15T02:49:53;67.00;;;27.90;;
56637;SDS011;42507;51.982;20.140;2022-11-15T02:52:39;65.78;;;27.90;;
56637;SDS011;42507;51.982;20.140;2022-11-15T02:55:31;72.03;;;28.73;;
56637;SDS011;42507;51.982;20.140;2022-11-15T02:58:32;62.78;;;27.22;;
56637;SDS011;42507;51.982;20.140;2022-11-15T03:04:37;61.68;;;25.60;;
56637;SDS011;42507;51.982;20.140;2022-11-15T03:07:45;65.50;;;27.45;;
56637;SDS011;42507;51.982;20.140;2022-11-15T03:10:55;57.53;;;24.50;;
56637;SDS011;42507;51.982;20.140;2022-11-15T03:19:45;59.45;;;26.25;;
56637;SDS011;42507;51.982;20.140;2022-11-15T03:22:39;65.67;;;26.55;;
56637;SDS011;42507;51.982;20.140;2022-11-15T03:25:27;63.85;;;26.65;;
56637;SDS011;42507;51.982;20.140;2022-11-15T03:28:16;64.67;;;26.87;;
56637;SDS011;42507;51.982;20.140;2022-11-15T03:31:04;65.35;;;27.65;;
56637;SDS011;42507;51.982;20.140;2022-11-15T03:33:52;65.28;;;27.40;;
56637;SDS011;42507;51.982;20.140;2022-11-15T03:36:39;63.65;;;26.97;;
56637;SDS011;42507;51.982;20.140;2022-11-15T03:39:23;71.10;;;26.70;;
56637;SDS011;42507;51.982;20.140;2022-11-15T03:48:24;64.50;;;26.95;;
56637;SDS011;42507;51.982;20.140;2022-11-15T03:51:07;64.95;;;25.92;;
56637;SDS011;42507;51.982;20.140;2022-11-15T03:53:52;68.05;;;27.07;;
56637;SDS011;42507;51.982;20.140;2022-11-15T03:56:36;63.28;;;25.35;;
56637;SDS011;42507;51.982;20.140;2022-11-15T03:59:22;67.82;;;26.48;;
56637;SDS011;42507;51.982;20.140;2022-11-15T04:02:06;71.50;;;26.50;;
56637;SDS011;42507;51.982;20.140;2022-11-15T04:04:51;64.10;;;25.40;;
56637;SDS011;42507;51.982;20.140;2022-11-15T04:07:36;58.48;;;23.27;;
56637;SDS011;42507;51.982;20.140;2022-11-15T04:10:21;70.45;;;26.75;;
56637;SDS011;42507;51.982;20.140;2022-11-15T04:13:05;62.95;;;24.30;;
56637;SDS011;42507;51.982;20.140;2022-11-15T04:15:51;61.23;;;23.45;;
56637;SDS011;42507;51.982;20.140;2022-11-15T04:18:35;63.45;;;25.23;;
56637;SDS011;42507;51.982;20.140;2022-11-15T04:21:20;66.45;;;26.12;;
56637;SDS011;42507;51.982;20.140;2022-11-15T04:24:23;68.42;;;25.50;;
56637;SDS011;42507;51.982;20.140;2022-11-15T04:27:08;70.78;;;26.25;;
56637;SDS011;42507;51.982;20.140;2022-11-15T04:29:52;65.87;;;25.08;;
56637;SDS011;42507;51.982;20.140;2022-11-15T04:32:37;66.57;;;25.00;;
56637;SDS011;42507;51.982;20.140;2022-11-15T04:35:22;69.10;;;26.65;;
56637;SDS011;42507;51.982;20.140;2022-11-15T04:38:07;62.38;;;24.05;;
56637;SDS011;42507;51.982;20.140;2022-11-15T04:40:53;67.60;;;25.72;;
56637;SDS011;42507;51.982;20.140;2022-11-15T04:43:38;60.40;;;24.25;;
56637;SDS011;42507;51.982;20.140;2022-11-15T04:46:23;62.20;;;23.57;;
56637;SDS011;42507;51.982;20.140;2022-11-15T04:49:08;68.05;;;25.57;;
56637;SDS011;42507;51.982;20.140;2022-11-15T04:51:53;73.28;;;26.93;;
56637;SDS011;42507;51.982;20.140;2022-11-15T04:54:37;64.27;;;24.12;;
56637;SDS011;42507;51.982;20.140;2022-11-15T04:57:22;63.87;;;23.87;;
56637;SDS011;42507;51.982;20.140;2022-11-15T05:00:08;69.77;;;26.15;;
56637;SDS011;42507;51.982;20.140;2022-11-15T05:02:56;59.55;;;23.60;;
56637;SDS011;42507;51.982;20.140;2022-11-15T05:06:00;69.32;;;25.97;;
56637;SDS011;42507;51.982;20.140;2022-11-15T05:08:45;72.00;;;26.68;;
56637;SDS011;42507;51.982;20.140;2022-11-15T05:11:29;73.28;;;26.73;;
56637;SDS011;42507;51.982;20.140;2022-11-15T05:14:14;69.00;;;26.12;;
56637;SDS011;42507;51.982;20.140;2022-11-15T05:16:59;66.57;;;25.65;;
56637;SDS011;42507;51.982;20.140;2022-11-15T05:19:44;67.37;;;24.72;;
56637;SDS011;42507;51.982;20.140;2022-11-15T05:22:29;69.60;;;25.08;;
56637;SDS011;42507;51.982;20.140;2022-11-15T05:25:13;68.52;;;25.85;;
56637;SDS011;42507;51.982;20.140;2022-11-15T05:27:58;67.00;;;24.92;;
56637;SDS011;42507;51.982;20.140;2022-11-15T05:30:43;69.53;;;26.33;;
56637;SDS011;42507;51.982;20.140;2022-11-15T05:33:28;70.87;;;25.60;;
56637;SDS011;42507;51.982;20.140;2022-11-15T05:36:17;69.55;;;25.02;;
56637;SDS011;42507;51.982;20.140;2022-11-15T05:39:07;64.62;;;23.85;;
56637;SDS011;42507;51.982;20.140;2022-11-15T05:41:54;64.97;;;24.50;;
56637;SDS011;42507;51.982;20.140;2022-11-15T05:44:44;73.92;;;26.68;;
56637;SDS011;42507;51.982;20.140;2022-11-15T05:47:31;69.65;;;25.43;;
56637;SDS011;42507;51.982;20.140;2022-11-15T05:50:18;69.12;;;24.72;;
56637;SDS011;42507;51.982;20.140;2022-11-15T05:53:03;68.00;;;24.90;;
56637;SDS011;42507;51.982;20.140;2022-11-15T05:55:48;73.78;;;25.65;;
56637;SDS011;42507;51.982;20.140;2022-11-15T05:58:33;75.22;;;27.13;;
56637;SDS011;42507;51.982;20.140;2022-11-15T06:01:18;70.03;;;24.92;;
56637;SDS011;42507;51.982;20.140;2022-11-15T06:04:03;73.45;;;26.48;;
56637;SDS011;42507;51.982;20.140;2022-11-15T06:06:47;72.50;;;24.57;;
56637;SDS011;42507;51.982;20.140;2022-11-15T06:09:32;79.03;;;25.55;;
56637;SDS011;42507;51.982;20.140;2022-11-15T06:12:17;72.47;;;25.37;;
56637;SDS011;42507;51.982;20.140;2022-11-15T06:15:02;72.82;;;25.10;;
56637;SDS011;42507;51.982;20.140;2022-11-15T06:17:47;73.02;;;26.12;;
56637;SDS011;42507;51.982;20.140;2022-11-15T06:20:31;66.40;;;25.23;;
56637;SDS011;42507;51.982;20.140;2022-11-15T06:23:16;78.12;;;26.55;;
56637;SDS011;42507;51.982;20.140;2022-11-15T06:26:02;70.95;;;25.02;;
56637;SDS011;42507;51.982;20.140;2022-11-15T06:28:47;75.55;;;26.60;;
56637;SDS011;42507;51.982;20.140;2022-11-15T06:31:33;76.90;;;25.20;;
56637;SDS011;42507;51.982;20.140;2022-11-15T06:34:19;70.45;;;25.15;;
56637;SDS011;42507;51.982;20.140;2022-11-15T06:37:03;67.58;;;24.98;;
56637;SDS011;42507;51.982;20.140;2022-11-15T06:39:48;79.22;;;26.95;;
56637;SDS011;42507;51.982;20.140;2022-11-15T06:42:33;78.83;;;27.58;;
56637;SDS011;42507;51.982;20.140;2022-11-15T06:45:18;76.80;;;27.45;;
56637;SDS011;42507;51.982;20.140;2022-11-15T06:48:02;75.32;;;25.60;;
56637;SDS011;42507;51.982;20.140;2022-11-15T06:50:51;78.87;;;26.30;;
56637;SDS011;42507;51.982;20.140;2022-11-15T06:53:37;74.47;;;26.17;;
56637;SDS011;42507;51.982;20.140;2022-11-15T06:56:21;74.58;;;27.00;;
56637;SDS011;42507;51.982;20.140;2022-11-15T06:59:07;68.30;;;23.80;;
56637;SDS011;42507;51.982;20.140;2022-11-15T07:01:52;72.05;;;26.97;;
56637;SDS011;42507;51.982;20.140;2022-11-15T07:04:36;71.07;;;25.55;;
56637;SDS011;42507;51.982;20.140;2022-11-15T07:07:21;70.75;;;26.33;;
56637;SDS011;42507;51.982;20.140;2022-11-15T07:10:06;70.03;;;26.27;;
56637;SDS011;42507;51.982;20.140;2022-11-15T07:12:52;71.22;;;25.88;;
56637;SDS011;42507;51.982;20.140;2022-11-15T07:15:37;69.07;;;25.92;;
56637;SDS011;42507;51.982;20.140;2022-11-15T07:18:22;68.12;;;25.77;;
56637;SDS011;42507;51.982;20.140;2022-11-15T07:21:08;71.67;;;26.48;;
56637;SDS011;42507;51.982;20.140;2022-11-15T07:23:55;75.62;;;27.52;;
56637;SDS011;42507;51.982;20.140;2022-11-15T07:26:40;71.42;;;25.23;;
56637;SDS011;42507;51.982;20.140;2022-11-15T07:29:24;64.85;;;24.77;;
56637;SDS011;42507;51.982;20.140;2022-11-15T07:32:09;71.62;;;26.77;;
56637;SDS011;42507;51.982;20.140;2022-11-15T07:34:54;69.72;;;26.90;;
56637;SDS011;42507;51.982;20.140;2022-11-15T07:37:39;63.40;;;25.25;;
56637;SDS011;42507;51.982;20.140;2022-11-15T07:40:24;69.97;;;27.02;;
56637;SDS011;42507;51.982;20.140;2022-11-15T07:43:10;64.87;;;26.55;;
56637;SDS011;42507;51.982;20.140;2022-11-15T07:45:55;60.52;;;25.43;;
56637;SDS011;42507;51.982;20.140;2022-11-15T07:48:40;67.62;;;26.73;;
56637;SDS011;42507;51.982;20.140;2022-11-15T07:51:25;65.78;;;25.62;;
56637;SDS011;42507;51.982;20.140;2022-11-15T07:54:10;66.02;;;25.10;;
56637;SDS011;42507;51.982;20.140;2022-11-15T07:56:54;60.08;;;25.85;;
56637;SDS011;42507;51.982;20.140;2022-11-15T07:59:39;55.17;;;23.50;;
56637;SDS011;42507;51.982;20.140;2022-11-15T08:02:24;58.83;;;25.68;;
56637;SDS011;42507;51.982;20.140;2022-11-15T08:05:08;59.77;;;23.80;;
56637;SDS011;42507;51.982;20.140;2022-11-15T08:07:54;56.35;;;25.62;;
56637;SDS011;42507;51.982;20.140;2022-11-15T08:10:40;60.12;;;24.70;;
56637;SDS011;42507;51.982;20.140;2022-11-15T08:13:25;63.65;;;26.77;;
56637;SDS011;42507;51.982;20.140;2022-11-15T08:16:10;57.45;;;24.75;;
56637;SDS011;42507;51.982;20.140;2022-11-15T08:18:55;54.53;;;23.20;;
56637;SDS011;42507;51.982;20.140;2022-11-15T08:21:40;60.50;;;26.20;;
56637;SDS011;42507;51.982;20.140;2022-11-15T08:24:26;61.77;;;25.82;;
56637;SDS011;42507;51.982;20.140;2022-11-15T08:27:11;59.63;;;25.92;;
56637;SDS011;42507;51.982;20.140;2022-11-15T08:30:01;62.75;;;25.08;;
56637;SDS011;42507;51.982;20.140;2022-11-15T08:32:47;53.83;;;23.85;;
56637;SDS011;42507;51.982;20.140;2022-11-15T08:35:32;57.67;;;25.17;;
56637;SDS011;42507;51.982;20.140;2022-11-15T08:38:18;55.23;;;23.60;;
56637;SDS011;42507;51.982;20.140;2022-11-15T08:41:03;61.48;;;26.87;;
56637;SDS011;42507;51.982;20.140;2022-11-15T08:43:49;59.45;;;25.02;;
56637;SDS011;42507;51.982;20.140;2022-11-15T08:46:34;60.10;;;26.33;;
56637;SDS011;42507;51.982;20.140;2022-11-15T08:49:19;58.63;;;27.22;;
56637;SDS011;42507;51.982;20.140;2022-11-15T08:52:04;60.67;;;25.90;;
56637;SDS011;42507;51.982;20.140;2022-11-15T08:54:48;54.08;;;25.85;;
56637;SDS011;42507;51.982;20.140;2022-11-15T08:57:33;56.40;;;26.17;;
56637;SDS011;42507;51.982;20.140;2022-11-15T09:00:18;60.12;;;26.30;;
56637;SDS011;42507;51.982;20.140;2022-11-15T09:03:04;57.13;;;26.50;;
56637;SDS011;42507;51.982;20.140;2022-11-15T09:05:59;54.67;;;25.55;;
56637;SDS011;42507;51.982;20.140;2022-11-15T09:08:41;60.35;;;25.20;;
56637;SDS011;42507;51.982;20.140;2022-11-15T09:11:26;51.68;;;24.85;;
56637;SDS011;42507;51.982;20.140;2022-11-15T09:14:11;56.68;;;25.43;;
56637;SDS011;42507;51.982;20.140;2022-11-15T09:16:57;55.85;;;25.08;;
56637;SDS011;42507;51.982;20.140;2022-11-15T09:19:42;51.92;;;25.37;;
56637;SDS011;42507;51.982;20.140;2022-11-15T09:22:27;48.75;;;25.02;;
56637;SDS011;42507;51.982;20.140;2022-11-15T09:25:12;51.10;;;25.57;;
56637;SDS011;42507;51.982;20.140;2022-11-15T09:27:57;51.68;;;25.90;;
56637;SDS011;42507;51.982;20.140;2022-11-15T09:30:42;48.13;;;24.57;;
56637;SDS011;42507;51.982;20.140;2022-11-15T09:33:27;51.65;;;25.97;;
56637;SDS011;42507;51.982;20.140;2022-11-15T09:36:12;51.77;;;25.35;;
56637;SDS011;42507;51.982;20.140;2022-11-15T09:38:57;56.63;;;27.25;;
56637;SDS011;42507;51.982;20.140;2022-11-15T09:41:58;52.17;;;25.43;;
56637;SDS011;42507;51.982;20.140;2022-11-15T09:45:31;54.50;;;26.82;;
56637;SDS011;42507;51.982;20.140;2022-11-15T09:51:28;53.40;;;26.70;;
56637;SDS011;42507;51.982;20.140;2022-11-15T09:54:05;53.13;;;26.52;;
56637;SDS011;42507;51.982;20.140;2022-11-15T09:56:41;51.60;;;24.85;;
56637;SDS011;42507;51.982;20.140;2022-11-15T09:59:13;49.85;;;25.90;;
56637;SDS011;42507;51.982;20.140;2022-11-15T10:01:57;52.98;;;25.82;;
56637;SDS011;42507;51.982;20.140;2022-11-15T10:04:43;54.67;;;27.17;;
56637;SDS011;42507;51.982;20.140;2022-11-15T10:07:14;54.53;;;27.65;;
56637;SDS011;42507;51.982;20.140;2022-11-15T10:09:54;55.25;;;29.12;;
56637;SDS011;42507;51.982;20.140;2022-11-15T10:12:36;52.48;;;26.80;;
56637;SDS011;42507;51.982;20.140;2022-11-15T10:15:04;56.00;;;27.82;;
56637;SDS011;42507;51.982;20.140;2022-11-15T10:17:42;54.70;;;28.00;;
56637;SDS011;42507;51.982;20.140;2022-11-15T10:22:53;57.93;;;28.62;;
56637;SDS011;42507;51.982;20.140;2022-11-15T10:25:30;55.15;;;27.93;;
56637;SDS011;42507;51.982;20.140;2022-11-15T10:28:15;54.75;;;28.42;;
56637;SDS011;42507;51.982;20.140;2022-11-15T10:30:44;51.60;;;26.63;;
56637;SDS011;42507;51.982;20.140;2022-11-15T10:33:32;49.33;;;27.37;;
56637;SDS011;42507;51.982;20.140;2022-11-15T10:41:21;53.52;;;28.38;;
56637;SDS011;42507;51.982;20.140;2022-11-15T10:46:40;51.68;;;28.20;;
56637;SDS011;42507;51.982;20.140;2022-11-15T10:49:12;48.85;;;26.73;;
56637;SDS011;42507;51.982;20.140;2022-11-15T10:51:47;50.92;;;26.35;;
56637;SDS011;42507;51.982;20.140;2022-11-15T10:54:14;44.40;;;25.20;;
56637;SDS011;42507;51.982;20.140;2022-11-15T10:56:57;48.90;;;25.52;;
56637;SDS011;42507;51.982;20.140;2022-11-15T10:59:26;46.73;;;26.52;;
56637;SDS011;42507;51.982;20.140;2022-11-15T11:01:56;46.28;;;25.12;;
56637;SDS011;42507;51.982;20.140;2022-11-15T11:04:23;47.67;;;24.65;;
56637;SDS011;42507;51.982;20.140;2022-11-15T11:06:49;49.10;;;25.43;;
56637;SDS011;42507;51.982;20.140;2022-11-15T11:09:27;48.35;;;25.05;;
56637;SDS011;42507;51.982;20.140;2022-11-15T11:12:03;41.83;;;22.30;;
56637;SDS011;42507;51.982;20.140;2022-11-15T11:14:38;44.85;;;23.60;;
56637;SDS011;42507;51.982;20.140;2022-11-15T11:17:10;48.70;;;25.02;;
56637;SDS011;42507;51.982;20.140;2022-11-15T11:20:30;47.75;;;24.72;;
56637;SDS011;42507;51.982;20.140;2022-11-15T11:31:07;44.70;;;24.05;;
56637;SDS011;42507;51.982;20.140;2022-11-15T11:40:18;39.60;;;22.93;;
56637;SDS011;42507;51.982;20.140;2022-11-15T11:48:46;38.23;;;23.75;;
56637;SDS011;42507;51.982;20.140;2022-11-15T11:51:33;37.53;;;20.35;;
56637;SDS011;42507;51.982;20.140;2022-11-15T11:53:55;41.55;;;24.18;;
56637;SDS011;42507;51.982;20.140;2022-11-15T11:56:29;38.60;;;21.90;;
56637;SDS011;42507;51.982;20.140;2022-11-15T11:59:05;35.23;;;20.48;;
56637;SDS011;42507;51.982;20.140;2022-11-15T12:01:49;32.70;;;19.92;;
56637;SDS011;42507;51.982;20.140;2022-11-15T12:04:29;35.00;;;21.60;;
56637;SDS011;42507;51.982;20.140;2022-11-15T12:07:07;38.08;;;24.00;;
56637;SDS011;42507;51.982;20.140;2022-11-15T12:09:43;40.80;;;24.37;;
56637;SDS011;42507;51.982;20.140;2022-11-15T12:12:19;37.17;;;22.73;;
56637;SDS011;42507;51.982;20.140;2022-11-15T12:15:01;29.20;;;19.62;;
56637;SDS011;42507;51.982;20.140;2022-11-15T12:17:38;27.90;;;19.65;;
56637;SDS011;42507;51.982;20.140;2022-11-15T12:25:47;33.50;;;19.45;;
56637;SDS011;42507;51.982;20.140;2022-11-15T12:28:24;33.78;;;20.75;;
56637;SDS011;42507;51.982;20.140;2022-11-15T12:31:24;34.70;;;23.07;;
56637;SDS011;42507;51.982;20.140;2022-11-15T12:34:04;34.53;;;21.57;;
56637;SDS011;42507;51.982;20.140;2022-11-15T12:36:50;35.83;;;21.27;;
56637;SDS011;42507;51.982;20.140;2022-11-15T12:39:17;31.97;;;20.32;;
56637;SDS011;42507;51.982;20.140;2022-11-15T12:42:34;33.78;;;20.00;;
56637;SDS011;42507;51.982;20.140;2022-11-15T12:49:50;33.70;;;21.62;;
56637;SDS011;42507;51.982;20.140;2022-11-15T12:52:17;36.00;;;21.93;;
56637;SDS011;42507;51.982;20.140;2022-11-15T12:54:57;37.95;;;24.25;;
56637;SDS011;42507;51.982;20.140;2022-11-15T12:59:58;36.15;;;22.27;;
56637;SDS011;42507;51.982;20.140;2022-11-15T13:02:48;32.73;;;20.90;;
56637;SDS011;42507;51.982;20.140;2022-11-15T13:13:08;31.20;;;20.23;;
56637;SDS011;42507;51.982;20.140;2022-11-15T13:18:39;32.13;;;21.90;;
56637;SDS011;42507;51.982;20.140;2022-11-15T13:21:18;29.75;;;20.48;;
56637;SDS011;42507;51.982;20.140;2022-11-15T13:24:11;36.08;;;22.20;;
56637;SDS011;42507;51.982;20.140;2022-11-15T13:26:39;40.92;;;23.98;;
56637;SDS011;42507;51.982;20.140;2022-11-15T13:29:14;37.30;;;22.70;;
56637;SDS011;42507;51.982;20.140;2022-11-15T13:31:44;32.95;;;21.75;;
56637;SDS011;42507;51.982;20.140;2022-11-15T13:34:28;46.58;;;30.45;;
56637;SDS011;42507;51.982;20.140;2022-11-15T13:36:58;36.53;;;23.95;;
56637;SDS011;42507;51.982;20.140;2022-11-15T13:39:29;31.82;;;20.90;;
56637;SDS011;42507;51.982;20.140;2022-11-15T13:42:02;35.30;;;21.50;;
56637;SDS011;42507;51.982;20.140;2022-11-15T13:44:33;33.90;;;20.92;;
56637;SDS011;42507;51.982;20.140;2022-11-15T13:49:44;31.23;;;21.12;;
56637;SDS011;42507;51.982;20.140;2022-11-15T13:52:11;30.45;;;19.95;;
56637;SDS011;42507;51.982;20.140;2022-11-15T13:54:43;33.38;;;21.85;;
56637;SDS011;42507;51.982;20.140;2022-11-15T13:57:18;35.98;;;22.48;;
56637;SDS011;42507;51.982;20.140;2022-11-15T13:59:54;30.08;;;18.35;;
56637;SDS011;42507;51.982;20.140;2022-11-15T14:02:26;29.32;;;18.75;;
56637;SDS011;42507;51.982;20.140;2022-11-15T14:05:00;31.65;;;21.05;;
56637;SDS011;42507;51.982;20.140;2022-11-15T14:07:44;31.37;;;19.80;;
56637;SDS011;42507;51.982;20.140;2022-11-15T14:10:26;32.73;;;19.52;;
56637;SDS011;42507;51.982;20.140;2022-11-15T14:13:00;34.67;;;20.08;;
56637;SDS011;42507;51.982;20.140;2022-11-15T14:15:30;32.45;;;19.55;;
56637;SDS011;42507;51.982;20.140;2022-11-15T14:18:01;28.95;;;18.27;;
56637;SDS011;42507;51.982;20.140;2022-11-15T14:20:30;35.17;;;21.12;;
56637;SDS011;42507;51.982;20.140;2022-11-15T14:23:24;30.45;;;18.23;;
56637;SDS011;42507;51.982;20.140;2022-11-15T14:25:58;33.33;;;20.80;;
56637;SDS011;42507;51.982;20.140;2022-11-15T14:30:59;32.23;;;19.42;;
56637;SDS011;42507;51.982;20.140;2022-11-15T14:33:33;33.40;;;19.62;;
56637;SDS011;42507;51.982;20.140;2022-11-15T14:36:03;33.02;;;19.98;;
56637;SDS011;42507;51.982;20.140;2022-11-15T14:38:45;30.85;;;18.60;;
56637;SDS011;42507;51.982;20.140;2022-11-15T14:41:17;39.53;;;19.95;;
56637;SDS011;42507;51.982;20.140;2022-11-15T14:43:46;34.50;;;19.77;;
56637;SDS011;42507;51.982;20.140;2022-11-15T14:46:13;33.78;;;20.72;;
56637;SDS011;42507;51.982;20.140;2022-11-15T14:48:39;29.30;;;17.73;;
56637;SDS011;42507;51.982;20.140;2022-11-15T14:51:18;34.00;;;18.42;;
56637;SDS011;42507;51.982;20.140;2022-11-15T14:53:45;33.25;;;17.75;;
56637;SDS011;42507;51.982;20.140;2022-11-15T14:56:12;35.28;;;19.75;;
56637;SDS011;42507;51.982;20.140;2022-11-15T14:58:38;31.65;;;19.67;;
56637;SDS011;42507;51.982;20.140;2022-11-15T15:01:12;31.40;;;17.87;;
56637;SDS011;42507;51.982;20.140;2022-11-15T15:03:45;37.35;;;20.92;;
56637;SDS011;42507;51.982;20.140;2022-11-15T15:06:11;38.13;;;21.33;;
56637;SDS011;42507;51.982;20.140;2022-11-15T15:08:39;33.85;;;17.73;;
56637;SDS011;42507;51.982;20.140;2022-11-15T15:11:10;37.53;;;19.75;;
56637;SDS011;42507;51.982;20.140;2022-11-15T15:13:43;39.92;;;22.60;;
56637;SDS011;42507;51.982;20.140;2022-11-15T15:16:09;41.15;;;21.87;;
56637;SDS011;42507;51.982;20.140;2022-11-15T15:18:35;33.85;;;18.12;;
56637;SDS011;42507;51.982;20.140;2022-11-15T15:21:01;38.28;;;20.37;;
56637;SDS011;42507;51.982;20.140;2022-11-15T15:23:29;42.10;;;22.32;;
56637;SDS011;42507;51.982;20.140;2022-11-15T15:25:56;39.30;;;21.02;;
56637;SDS011;42507;51.982;20.140;2022-11-15T15:28:22;45.08;;;25.05;;
56637;SDS011;42507;51.982;20.140;2022-11-15T15:30:49;37.55;;;21.90;;
56637;SDS011;42507;51.982;20.140;2022-11-15T15:33:15;50.55;;;29.15;;
56637;SDS011;42507;51.982;20.140;2022-11-15T15:35:42;45.17;;;24.80;;
56637;SDS011;42507;51.982;20.140;2022-11-15T15:38:10;38.15;;;20.55;;
56637;SDS011;42507;51.982;20.140;2022-11-15T15:40:38;42.03;;;24.35;;
56637;SDS011;42507;51.982;20.140;2022-11-15T15:43:04;48.23;;;24.82;;
56637;SDS011;42507;51.982;20.140;2022-11-15T15:45:30;49.73;;;27.45;;
56637;SDS011;42507;51.982;20.140;2022-11-15T15:47:56;37.28;;;20.35;;
56637;SDS011;42507;51.982;20.140;2022-11-15T15:50:26;45.60;;;23.38;;
56637;SDS011;42507;51.982;20.140;2022-11-15T15:52:55;51.42;;;27.13;;
56637;SDS011;42507;51.982;20.140;2022-11-15T15:55:23;43.60;;;23.77;;
56637;SDS011;42507;51.982;20.140;2022-11-15T15:57:50;41.77;;;21.95;;
56637;SDS011;42507;51.982;20.140;2022-11-15T16:00:17;52.98;;;26.00;;
56637;SDS011;42507;51.982;20.140;2022-11-15T16:02:44;47.25;;;24.07;;
56637;SDS011;42507;51.982;20.140;2022-11-15T16:05:11;41.60;;;22.02;;
56637;SDS011;42507;51.982;20.140;2022-11-15T16:07:38;37.83;;;20.90;;
56637;SDS011;42507;51.982;20.140;2022-11-15T16:10:48;49.18;;;23.90;;
56637;SDS011;42507;51.982;20.140;2022-11-15T16:12:42;44.13;;;22.07;;
56637;SDS011;42507;51.982;20.140;2022-11-15T16:15:09;51.80;;;26.17;;
56637;SDS011;42507;51.982;20.140;2022-11-15T16:17:37;47.75;;;22.95;;
56637;SDS011;42507;51.982;20.140;2022-11-15T16:20:06;52.17;;;25.60;;
56637;SDS011;42507;51.982;20.140;2022-11-15T16:22:35;42.98;;;22.90;;
56637;SDS011;42507;51.982;20.140;2022-11-15T16:25:01;47.40;;;22.85;;
56637;SDS011;42507;51.982;20.140;2022-11-15T16:27:27;53.00;;;24.98;;
56637;SDS011;42507;51.982;20.140;2022-11-15T16:29:53;48.83;;;23.60;;
56637;SDS011;42507;51.982;20.140;2022-11-15T16:32:19;55.55;;;26.93;;
56637;SDS011;42507;51.982;20.140;2022-11-15T16:34:45;45.00;;;23.73;;
56637;SDS011;42507;51.982;20.140;2022-11-15T16:37:21;58.35;;;26.40;;
56637;SDS011;42507;51.982;20.140;2022-11-15T16:39:48;49.05;;;24.35;;
56637;SDS011;42507;51.982;20.140;2022-11-15T16:42:14;54.85;;;26.55;;
56637;SDS011;42507;51.982;20.140;2022-11-15T16:44:40;67.97;;;31.37;;
56637;SDS011;42507;51.982;20.140;2022-11-15T16:47:13;69.65;;;32.58;;
56637;SDS011;42507;51.982;20.140;2022-11-15T16:49:43;75.12;;;37.67;;
56637;SDS011;42507;51.982;20.140;2022-11-15T16:52:09;69.55;;;33.50;;
56637;SDS011;42507;51.982;20.140;2022-11-15T16:54:36;70.08;;;29.67;;
56637;SDS011;42507;51.982;20.140;2022-11-15T16:57:02;64.90;;;29.37;;